首页
METAR-TAF:

METAR-TAF

机场 :

桑坦德, 西班牙

纬度: 43-26N, 经度: 003-49W, 海拔: 6米

当前天气观测

该预报发布于37分钟前的01:00 UTC
风速3节,风向南转西南,在东转东南西南之间变化
温度 13°C
湿度 94%
气压 1025 hPa
能見度: 4900
阴天层高于1700英尺

METAR: LEXJ 300100Z AUTO 20003KT 120V230 9999 4900W OVC017 13/12 Q1025

时间: 02:37 (01:37 UTC)

预报

该预报发布于5小时和37分钟前的20:00 UTC
预报有效从29日的 21点(UTC)到 30日的 21点(UTC)
风速5节,风向南转西南
能见度10公里或以上
1500米以下无云,无积雨云
短暂存在
从 30日的 11点(UTC)到 30日的 17点(UTC)
风速10节,风向东北
几率 30% :
短暂存在
从 30日的 00点(UTC)到 30日的 07点(UTC)
能見度: 1500
碎片雾

TAF: LEXJ 292000Z 2921/3021 20005KT CAVOK TX19/3013Z TN10/3007Z TEMPO 3011/3017 05010KT PROB30 TEMPO 3000/3007 1500 BCFG

超过4000个机场的气象观测和天气预报(METAR&TAF报告)。

可查询的气象台以黄色和红色小点在地图上表示。

将鼠标移到小点上方,可查看气象台名称。

然后点击查看天气观测和预报。

如需切换地图:点击带黑十字的绿色按钮放大地图;点击带横线的绿色按钮缩小地图;或者点击绿色箭头查看邻近地区的地图。


METAR-TAF: